Terminal Aerodrome Forecast
Issued by NWS

Home | Current Version | Previous Version | Graphics & Text | Print | Product List | Glossary On
Versions: 1 2 3 4 5 6 7 8 9 10 11 12 13 14 15 16 17 18 19 20 21 22
000
FTUS43 KTOP 270521
TAFMHK
TAF
KMHK 270521Z 2706/2806 10013KT P6SM -SHRA VCTS BKN080CB
      TEMPO 2706/2708 4SM TSRA BR BKN040CB
     FM270900 16010KT P6SM BKN040
     FM271200 24013KT P6SM SCT040
     FM271900 25010KT P6SM VCSH BKN035
     FM280000 26007KT P6SM SCT200=

USA.gov is the U.S. government's official web portal to all federal, state and local government web resources and services.